KLAR/LAR METAR and TAF weather

Enter ICAO airport designator
Station Type Date Time Source
KLAR METAR 2022/06/25 21:53 UTC NOAA

KLAR 252153Z AUTO 11012KT 10SM BKN060 OVC075 19/04 A3037 RMK AO2 WSHFT 2113 LTG DSNT SW SLP198 T01890044


Station Type Date Time Source
KLAR Decoded METAR 2022/06/25 21:53 UTC NOAA

LARAMIE REGIONAL AIRPORT, WY, United States (KLAR) 41-19N 105-40W 2216M
Jun 25, 2022 - 05:53 PM EDT / 2022.06.25 2153 UTC
Wind: from the ESE (110 degrees) at 14 MPH (12 KT):0
Visibility: 10 mile(s):0
Sky conditions: overcast
Weather: Lightning observed
Temperature: 66.0 F (18.9 C)
Dew Point: 39.9 F (4.4 C)
Relative Humidity: 38%
Pressure (altimeter): 30.37 in. Hg (1028 hPa)
ob: KLAR 252153Z AUTO 11012KT 10SM BKN060 OVC075 19/04 A3037 RMK AO2 WSHFT 2113 LTG DSNT SW SLP198 T01890044
cycle: 22

Station Type Date Time Source
KLAR TAF 2022/06/25 18:22 UTC NOAA

TAF KLAR 251720Z 2518/2618 03008KT P6SM BKN025 BKN040
FM251900 03009KT P6SM VCSH SCT050
FM252100 06010G20KT P6SM VCTS BKN090CB
FM260000 10013KT P6SM BKN100
FM261100 15008KT P6SM BKN020 OVC050

Example: see airport list